Time,TemperatureF,DewpointF,PressureIn,WindDirection,WindDirectionDegrees,WindSpeedMPH,WindSpeedGustMPH,Humidity,HourlyPrecipIn,Conditions,Clouds,dailyrainin,SoftwareType,DateUTC
2013-01-09 00:00:00,23.8,21.0,30.00,North,359,0.0,6.0,89,0.00,,,-99.99,Weather View 32 v60,2013-01-09 05:00:00,
2013-01-09 00:10:00,24.5,22.5,30.00,North,359,0.0,6.0,92,0.00,,,-99.99,Weather View 32 v60,2013-01-09 05:10:00,
2013-01-09 00:15:00,24.9,21.6,30.00,North,359,0.0,6.0,87,0.00,,,-99.99,Weather View 32 v60,2013-01-09 05:15:00,
2013-01-09 00:20:00,24.0,21.0,30.01,North,359,0.0,6.0,88,0.00,,,-99.99,Weather View 32 v60,2013-01-09 05:20:00,
2013-01-09 00:30:00,22.6,19.6,30.01,North,359,0.0,5.0,88,0.00,,,-99.99,Weather View 32 v60,2013-01-09 05:30:00,
2013-01-09 00:35:00,21.8,18.8,30.01,North,359,0.0,5.0,88,0.00,,,-99.99,Weather View 32 v60,2013-01-09 05:35:00,
2013-01-09 00:40:00,21.7,19.7,30.02,North,359,0.0,2.0,92,0.00,,,-99.99,Weather View 32 v60,2013-01-09 05:40:00,
2013-01-09 00:45:00,22.1,20.6,30.02,North,359,0.0,0.0,94,0.00,,,-99.99,Weather View 32 v60,2013-01-09 05:45:00,
2013-01-09 00:50:00,22.2,20.5,30.02,North,359,0.0,0.0,93,0.00,,,-99.99,Weather View 32 v60,2013-01-09 05:50:00,
2013-01-09 00:55:00,22.2,21.0,30.02,North,359,0.0,0.0,95,0.00,,,-99.99,Weather View 32 v60,2013-01-09 05:55:00,
2013-01-09 01:00:00,22.1,20.9,30.02,North,359,1.0,3.0,95,0.00,,,-99.99,Weather View 32 v60,2013-01-09 06:00:00,
2013-01-09 01:10:00,22.6,21.4,30.02,North,359,0.0,3.0,95,0.00,,,-99.99,Weather View 32 v60,2013-01-09 06:10:00,
2013-01-09 01:15:00,22.7,21.2,30.03,North,359,0.0,3.0,94,0.00,,,-99.99,Weather View 32 v60,2013-01-09 06:15:00,
2013-01-09 01:20:00,22.5,21.0,30.03,North,359,0.0,3.0,94,0.00,,,-99.99,Weather View 32 v60,2013-01-09 06:20:00,
2013-01-09 01:30:00,22.3,20.8,30.04,North,359,0.0,3.0,94,0.00,,,-99.99,Weather View 32 v60,2013-01-09 06:30:00,
2013-01-09 01:35:00,22.6,21.1,30.04,North,359,0.0,3.0,94,0.00,,,-99.99,Weather View 32 v60,2013-01-09 06:35:00,
2013-01-09 01:40:00,22.7,21.2,30.03,North,359,0.0,3.0,94,0.00,,,-99.99,Weather View 32 v60,2013-01-09 06:40:00,
2013-01-09 01:45:00,22.6,20.9,30.03,North,359,0.0,3.0,93,0.00,,,-99.99,Weather View 32 v60,2013-01-09 06:45:00,
2013-01-09 01:50:00,22.4,20.9,30.03,North,359,0.0,3.0,94,0.00,,,-99.99,Weather View 32 v60,2013-01-09 06:50:00,
2013-01-09 01:55:00,21.7,19.7,30.03,North,359,0.0,3.0,92,0.00,,,-99.99,Weather View 32 v60,2013-01-09 06:55:00,
2013-01-09 02:00:00,20.8,18.8,30.03,North,359,0.0,3.0,92,0.00,,,-99.99,Weather View 32 v60,2013-01-09 07:00:00,
2013-01-09 02:05:00,20.2,18.8,30.03,North,359,0.0,0.0,94,0.00,,,-99.99,Weather View 32 v60,2013-01-09 07:05:00,
2013-01-09 02:10:00,20.4,19.4,30.03,North,359,0.0,0.0,96,0.00,,,-99.99,Weather View 32 v60,2013-01-09 07:10:00,
2013-01-09 02:20:00,21.8,21.3,30.03,North,359,0.0,0.0,98,0.00,,,-99.99,Weather View 32 v60,2013-01-09 07:20:00,
2013-01-09 02:25:00,22.6,21.9,30.02,North,359,0.0,0.0,97,0.00,,,-99.99,Weather View 32 v60,2013-01-09 07:25:00,
2013-01-09 02:30:00,22.6,20.6,30.02,North,359,0.0,0.0,92,0.00,,,-99.99,Weather View 32 v60,2013-01-09 07:30:00,
2013-01-09 02:35:00,21.7,19.5,30.02,North,359,0.0,0.0,91,0.00,,,-99.99,Weather View 32 v60,2013-01-09 07:35:00,
2013-01-09 02:40:00,21.2,19.0,30.02,North,359,0.0,0.0,91,0.00,,,-99.99,Weather View 32 v60,2013-01-09 07:40:00,
2013-01-09 02:45:00,21.0,19.0,30.03,North,359,0.0,0.0,92,0.00,,,-99.99,Weather View 32 v60,2013-01-09 07:45:00,
2013-01-09 02:50:00,20.5,18.5,30.03,North,359,0.0,0.0,92,0.00,,,-99.99,Weather View 32 v60,2013-01-09 07:50:00,
2013-01-09 02:55:00,20.0,18.3,30.03,North,359,0.0,0.0,93,0.00,,,-99.99,Weather View 32 v60,2013-01-09 07:55:00,
2013-01-09 03:00:00,19.3,17.4,30.02,North,359,0.0,0.0,92,0.00,,,-99.99,Weather View 32 v60,2013-01-09 08:00:00,
2013-01-09 03:05:00,19.1,17.7,30.03,North,359,0.0,0.0,94,0.00,,,-99.99,Weather View 32 v60,2013-01-09 08:05:00,
2013-01-09 03:10:00,19.1,17.9,30.02,North,359,0.0,0.0,95,0.00,,,-99.99,Weather View 32 v60,2013-01-09 08:10:00,
2013-01-09 03:15:00,18.9,17.7,30.02,North,359,0.0,0.0,95,0.00,,,-99.99,Weather View 32 v60,2013-01-09 08:15:00,
2013-01-09 03:20:00,19.1,18.1,30.02,North,359,0.0,0.0,96,0.00,,,-99.99,Weather View 32 v60,2013-01-09 08:20:00,
2013-01-09 03:30:00,19.6,18.9,30.02,North,359,0.0,0.0,97,0.00,,,-99.99,Weather View 32 v60,2013-01-09 08:30:00,
2013-01-09 03:35:00,19.7,19.0,30.02,North,359,0.0,0.0,97,0.00,,,-99.99,Weather View 32 v60,2013-01-09 08:35:00,
2013-01-09 03:40:00,19.8,19.1,30.02,North,359,0.0,0.0,97,0.00,,,-99.99,Weather View 32 v60,2013-01-09 08:40:00,
2013-01-09 03:45:00,19.5,18.5,30.02,North,359,0.0,0.0,96,0.00,,,-99.99,Weather View 32 v60,2013-01-09 08:45:00,
2013-01-09 03:50:00,19.2,18.5,30.02,North,359,0.0,0.0,97,0.00,,,-99.99,Weather View 32 v60,2013-01-09 08:50:00,
2013-01-09 03:55:00,19.1,18.6,30.02,North,359,0.0,0.0,98,0.00,,,-99.99,Weather View 32 v60,2013-01-09 08:55:00,
2013-01-09 04:00:00,19.1,18.6,30.02,North,359,0.0,0.0,98,0.00,,,-99.99,Weather View 32 v60,2013-01-09 09:00:00,
2013-01-09 04:05:00,19.5,19.5,30.02,North,359,0.0,0.0,100,0.00,,,-99.99,Weather View 32 v60,2013-01-09 09:05:00,
2013-01-09 04:10:00,19.7,19.5,30.02,North,359,0.0,0.0,99,0.00,,,-99.99,Weather View 32 v60,2013-01-09 09:10:00,
2013-01-09 04:15:00,19.5,19.0,30.02,North,359,0.0,0.0,98,0.00,,,-99.99,Weather View 32 v60,2013-01-09 09:15:00,
2013-01-09 04:23:00,19.2,19.0,30.01,North,359,0.0,0.0,99,0.00,,,-99.99,Weather View 32 v60,2013-01-09 09:23:00,
2013-01-09 04:30:00,19.6,19.6,30.01,North,359,0.0,0.0,100,0.00,,,-99.99,Weather View 32 v60,2013-01-09 09:30:00,
2013-01-09 04:35:00,19.7,19.7,30.01,North,359,0.0,0.0,100,0.00,,,-99.99,Weather View 32 v60,2013-01-09 09:35:00,
2013-01-09 04:40:00,19.6,19.6,30.01,North,359,0.0,0.0,100,0.00,,,-99.99,Weather View 32 v60,2013-01-09 09:40:00,
2013-01-09 04:45:00,19.8,19.8,30.01,North,359,0.0,0.0,100,0.00,,,-99.99,Weather View 32 v60,2013-01-09 09:45:00,
2013-01-09 04:50:00,19.8,19.8,30.00,North,359,0.0,0.0,100,0.00,,,-99.99,Weather View 32 v60,2013-01-09 09:50:00,
2013-01-09 04:55:00,20.1,20.1,30.00,North,359,0.0,0.0,100,0.00,,,-99.99,Weather View 32 v60,2013-01-09 09:55:00,
2013-01-09 05:00:00,20.6,20.6,30.00,North,359,0.0,0.0,100,0.00,,,-99.99,Weather View 32 v60,2013-01-09 10:00:00,
2013-01-09 05:05:00,20.4,20.4,30.00,North,359,0.0,0.0,100,0.00,,,-99.99,Weather View 32 v60,2013-01-09 10:05:00,
2013-01-09 05:10:00,20.2,20.2,30.01,North,359,0.0,0.0,100,0.00,,,-99.99,Weather View 32 v60,2013-01-09 10:10:00,
2013-01-09 05:15:00,20.5,20.5,30.01,North,359,0.0,0.0,100,0.00,,,-99.99,Weather View 32 v60,2013-01-09 10:15:00,
2013-01-09 05:20:00,20.8,20.8,30.00,North,359,0.0,0.0,100,0.00,,,-99.99,Weather View 32 v60,2013-01-09 10:20:00,
2013-01-09 05:25:00,20.8,20.8,30.01,North,359,0.0,0.0,100,0.00,,,-99.99,Weather View 32 v60,2013-01-09 10:25:00,
2013-01-09 05:30:00,21.0,21.0,30.02,North,359,0.0,0.0,100,0.00,,,-99.99,Weather View 32 v60,2013-01-09 10:30:00,
2013-01-09 05:35:00,21.0,21.0,30.02,North,359,0.0,0.0,100,0.00,,,-99.99,Weather View 32 v60,2013-01-09 10:35:00,
2013-01-09 05:45:00,21.0,21.0,30.02,North,359,0.0,0.0,100,0.00,,,-99.99,Weather View 32 v60,2013-01-09 10:45:00,
2013-01-09 05:50:00,21.0,21.0,30.02,North,359,0.0,0.0,100,0.00,,,-99.99,Weather View 32 v60,2013-01-09 10:50:00,
2013-01-09 05:55:00,20.9,20.9,30.03,North,359,0.0,0.0,100,0.00,,,-99.99,Weather View 32 v60,2013-01-09 10:55:00,
2013-01-09 06:00:00,20.2,20.0,30.02,North,359,0.0,0.0,99,0.00,,,-99.99,Weather View 32 v60,2013-01-09 11:00:00,
2013-01-09 06:05:00,19.5,19.3,30.02,North,359,0.0,0.0,99,0.00,,,-99.99,Weather View 32 v60,2013-01-09 11:05:00,
2013-01-09 06:10:00,19.7,19.7,30.03,North,359,0.0,0.0,100,0.00,,,-99.99,Weather View 32 v60,2013-01-09 11:10:00,
2013-01-09 06:15:00,19.6,19.6,30.03,North,359,0.0,0.0,100,0.00,,,-99.99,Weather View 32 v60,2013-01-09 11:15:00,
2013-01-09 06:20:00,18.8,18.8,30.03,North,359,0.0,0.0,100,0.00,,,-99.99,Weather View 32 v60,2013-01-09 11:20:00,
2013-01-09 06:30:00,16.9,16.2,30.03,North,359,0.0,0.0,97,0.00,,,-99.99,Weather View 32 v60,2013-01-09 11:30:00,
2013-01-09 06:35:00,15.4,14.2,30.04,North,359,0.0,0.0,95,0.00,,,-99.99,Weather View 32 v60,2013-01-09 11:35:00,
2013-01-09 06:40:00,14.3,13.4,30.04,North,359,0.0,0.0,96,0.00,,,-99.99,Weather View 32 v60,2013-01-09 11:40:00,
2013-01-09 06:45:00,13.5,12.8,30.05,North,359,0.0,0.0,97,0.00,,,-99.99,Weather View 32 v60,2013-01-09 11:45:00,
2013-01-09 06:50:00,13.1,12.6,30.05,North,359,0.0,0.0,98,0.00,,,-99.99,Weather View 32 v60,2013-01-09 11:50:00,
2013-01-09 06:55:00,13.1,12.9,30.05,North,359,0.0,0.0,99,0.00,,,-99.99,Weather View 32 v60,2013-01-09 11:55:00,
2013-01-09 07:00:00,13.3,13.3,30.06,North,359,0.0,0.0,100,0.00,,,-99.99,Weather View 32 v60,2013-01-09 12:00:00,
2013-01-09 07:05:00,13.6,13.6,30.05,North,359,0.0,0.0,100,0.00,,,-99.99,Weather View 32 v60,2013-01-09 12:05:00,
2013-01-09 07:10:00,14.2,14.2,30.05,North,359,0.0,0.0,100,0.00,,,-99.99,Weather View 32 v60,2013-01-09 12:10:00,
2013-01-09 07:15:00,14.8,14.8,30.06,North,359,0.0,0.0,100,0.00,,,-99.99,Weather View 32 v60,2013-01-09 12:15:00,
2013-01-09 07:20:00,15.5,15.5,30.06,North,359,0.0,0.0,100,0.00,,,-99.99,Weather View 32 v60,2013-01-09 12:20:00,
2013-01-09 07:30:00,16.1,16.1,30.05,North,359,0.0,0.0,100,0.00,,,-99.99,Weather View 32 v60,2013-01-09 12:30:00,
2013-01-09 07:35:00,16.5,16.5,30.06,North,359,0.0,0.0,100,0.00,,,-99.99,Weather View 32 v60,2013-01-09 12:35:00,
2013-01-09 07:40:00,17.5,17.5,30.05,North,359,0.0,0.0,100,0.00,,,-99.99,Weather View 32 v60,2013-01-09 12:40:00,
2013-01-09 07:50:00,18.5,18.5,30.06,North,359,0.0,0.0,100,0.00,,,-99.99,Weather View 32 v60,2013-01-09 12:50:00,
2013-01-09 07:55:00,18.8,18.8,30.05,North,359,0.0,0.0,100,0.00,,,-99.99,Weather View 32 v60,2013-01-09 12:55:00,
2013-01-09 08:00:00,19.1,19.1,30.05,North,359,0.0,0.0,100,0.00,,,-99.99,Weather View 32 v60,2013-01-09 13:00:00,
2013-01-09 08:05:00,19.4,19.4,30.05,North,359,0.0,0.0,100,0.00,,,-99.99,Weather View 32 v60,2013-01-09 13:05:00,
2013-01-09 08:10:00,19.7,19.7,30.05,North,359,0.0,0.0,100,0.00,,,-99.99,Weather View 32 v60,2013-01-09 13:10:00,
2013-01-09 08:15:00,19.5,19.5,30.05,North,359,0.0,0.0,100,0.00,,,-99.99,Weather View 32 v60,2013-01-09 13:15:00,
2013-01-09 08:20:00,18.5,18.5,30.05,North,359,0.0,0.0,100,0.00,,,-99.99,Weather View 32 v60,2013-01-09 13:20:00,
2013-01-09 08:25:00,18.5,18.0,30.04,North,359,0.0,0.0,98,0.00,,,-99.99,Weather View 32 v60,2013-01-09 13:25:00,
2013-01-09 08:35:00,19.6,18.6,30.04,North,359,0.0,0.0,96,0.00,,,-99.99,Weather View 32 v60,2013-01-09 13:35:00,
2013-01-09 08:40:00,20.6,19.1,30.04,North,359,0.0,0.0,94,0.00,,,-99.99,Weather View 32 v60,2013-01-09 13:40:00,
2013-01-09 08:45:00,21.2,19.0,30.04,North,359,0.0,0.0,91,0.00,,,-99.99,Weather View 32 v60,2013-01-09 13:45:00,
2013-01-09 08:50:00,21.4,18.7,30.04,North,359,0.0,0.0,89,0.00,,,-99.99,Weather View 32 v60,2013-01-09 13:50:00,
2013-01-09 08:55:00,21.1,18.6,30.04,North,359,0.0,0.0,90,0.00,,,-99.99,Weather View 32 v60,2013-01-09 13:55:00,
2013-01-09 09:00:00,21.1,19.1,30.04,North,359,0.0,0.0,92,0.00,,,-99.99,Weather View 32 v60,2013-01-09 14:00:00,
2013-01-09 09:05:00,21.6,19.9,30.04,North,359,0.0,0.0,93,0.00,,,-99.99,Weather View 32 v60,2013-01-09 14:05:00,
2013-01-09 09:10:00,22.3,20.6,30.04,North,359,0.0,0.0,93,0.00,,,-99.99,Weather View 32 v60,2013-01-09 14:10:00,
2013-01-09 09:15:00,23.5,22.5,30.03,North,359,0.0,0.0,96,0.00,,,-99.99,Weather View 32 v60,2013-01-09 14:15:00,
2013-01-09 09:20:00,25.6,24.1,30.03,North,359,0.0,0.0,94,0.00,,,-99.99,Weather View 32 v60,2013-01-09 14:20:00,
2013-01-09 09:25:00,27.6,25.3,30.03,North,359,0.0,0.0,91,0.00,,,-99.99,Weather View 32 v60,2013-01-09 14:25:00,
2013-01-09 09:30:00,28.5,24.8,30.03,North,359,0.0,0.0,86,0.00,,,-99.99,Weather View 32 v60,2013-01-09 14:30:00,
2013-01-09 09:35:00,28.4,24.5,30.03,North,359,0.0,0.0,85,0.00,,,-99.99,Weather View 32 v60,2013-01-09 14:35:00,
2013-01-09 09:40:00,27.1,23.5,30.03,North,359,0.0,0.0,86,0.00,,,-99.99,Weather View 32 v60,2013-01-09 14:40:00,
2013-01-09 09:45:00,26.5,23.2,30.02,North,359,0.0,0.0,87,0.00,,,-99.99,Weather View 32 v60,2013-01-09 14:45:00,
2013-01-09 09:55:00,26.1,23.0,30.02,North,359,2.0,2.0,88,0.00,,,-99.99,Weather View 32 v60,2013-01-09 14:55:00,
2013-01-09 10:00:00,26.1,23.0,30.02,North,359,0.0,2.0,88,0.00,,,-99.99,Weather View 32 v60,2013-01-09 15:00:00,
2013-01-09 10:05:00,26.4,23.3,30.02,North,359,0.0,2.0,88,0.00,,,-99.99,Weather View 32 v60,2013-01-09 15:05:00,
2013-01-09 10:10:00,26.9,23.5,30.01,North,359,0.0,2.0,87,0.00,,,-99.99,Weather View 32 v60,2013-01-09 15:10:00,
2013-01-09 10:15:00,27.2,23.8,30.01,North,359,0.0,2.0,87,0.00,,,-99.99,Weather View 32 v60,2013-01-09 15:15:00,
2013-01-09 10:20:00,27.6,24.5,30.00,North,359,0.0,2.0,88,0.00,,,-99.99,Weather View 32 v60,2013-01-09 15:20:00,
2013-01-09 10:25:00,27.8,24.2,30.00,North,359,0.0,2.0,86,0.00,,,-99.99,Weather View 32 v60,2013-01-09 15:25:00,
2013-01-09 10:35:00,28.4,25.0,29.98,North,359,0.0,2.0,87,0.00,,,-99.99,Weather View 32 v60,2013-01-09 15:35:00,
2013-01-09 10:40:00,28.8,25.1,29.98,North,359,0.0,2.0,86,0.00,,,-99.99,Weather View 32 v60,2013-01-09 15:40:00,
2013-01-09 10:45:00,29.5,25.5,29.97,North,359,0.0,2.0,85,0.00,,,-99.99,Weather View 32 v60,2013-01-09 15:45:00,
2013-01-09 10:55:00,30.4,25.6,29.97,North,359,0.0,2.0,82,0.00,,,-99.99,Weather View 32 v60,2013-01-09 15:55:00,
2013-01-09 11:00:00,30.4,25.3,29.97,North,359,0.0,0.0,81,0.00,,,-99.99,Weather View 32 v60,2013-01-09 16:00:00,
2013-01-09 11:05:00,30.0,25.2,29.96,North,359,0.0,0.0,82,0.00,,,-99.99,Weather View 32 v60,2013-01-09 16:05:00,
2013-01-09 11:10:00,29.8,25.0,29.95,North,359,0.0,0.0,82,0.00,,,-99.99,Weather View 32 v60,2013-01-09 16:10:00,
2013-01-09 11:15:00,29.8,25.6,29.95,North,359,0.0,0.0,84,0.00,,,-99.99,Weather View 32 v60,2013-01-09 16:15:00,
2013-01-09 11:20:00,29.8,25.3,29.94,North,359,0.0,0.0,83,0.00,,,-99.99,Weather View 32 v60,2013-01-09 16:20:00,
2013-01-09 11:25:00,30.0,26.3,29.94,North,359,0.0,0.0,86,0.00,,,-99.99,Weather View 32 v60,2013-01-09 16:25:00,
2013-01-09 11:30:00,30.1,25.9,29.94,North,359,0.0,0.0,84,0.00,,,-99.99,Weather View 32 v60,2013-01-09 16:30:00,
2013-01-09 11:35:00,30.4,26.1,29.94,North,359,0.0,0.0,84,0.00,,,-99.99,Weather View 32 v60,2013-01-09 16:35:00,
2013-01-09 11:40:00,30.7,26.4,29.94,North,359,0.0,0.0,84,0.00,,,-99.99,Weather View 32 v60,2013-01-09 16:40:00,
2013-01-09 11:45:00,30.9,26.1,29.93,North,359,0.0,0.0,82,0.00,,,-99.99,Weather View 32 v60,2013-01-09 16:45:00,
2013-01-09 11:55:00,31.0,26.4,29.92,North,359,0.0,0.0,83,0.00,,,-99.99,Weather View 32 v60,2013-01-09 16:55:00,
2013-01-09 12:00:00,31.1,26.5,29.92,North,359,0.0,0.0,83,0.00,,,-99.99,Weather View 32 v60,2013-01-09 17:00:00,
2013-01-09 12:05:00,31.4,26.8,29.90,North,359,0.0,0.0,83,0.00,,,-99.99,Weather View 32 v60,2013-01-09 17:05:00,
2013-01-09 12:10:00,31.6,26.7,29.91,North,359,0.0,0.0,82,0.00,,,-99.99,Weather View 32 v60,2013-01-09 17:10:00,
2013-01-09 12:15:00,31.7,26.8,29.90,North,359,0.0,0.0,82,0.00,,,-99.99,Weather View 32 v60,2013-01-09 17:15:00,
2013-01-09 12:20:00,31.8,26.9,29.89,North,359,0.0,0.0,82,0.00,,,-99.99,Weather View 32 v60,2013-01-09 17:20:00,
2013-01-09 12:25:00,32.0,26.8,29.89,North,359,0.0,0.0,81,0.00,,,-99.99,Weather View 32 v60,2013-01-09 17:25:00,
2013-01-09 12:30:00,32.2,27.0,29.88,North,359,0.0,0.0,81,0.00,,,-99.99,Weather View 32 v60,2013-01-09 17:30:00,
2013-01-09 12:35:00,32.3,27.1,29.87,North,359,0.0,0.0,81,0.00,,,-99.99,Weather View 32 v60,2013-01-09 17:35:00,
2013-01-09 12:40:00,32.3,27.4,29.87,North,359,0.0,0.0,82,0.00,,,-99.99,Weather View 32 v60,2013-01-09 17:40:00,
2013-01-09 12:45:00,32.2,27.0,29.86,North,359,0.0,0.0,81,0.00,,,-99.99,Weather View 32 v60,2013-01-09 17:45:00,
2013-01-09 12:50:00,32.0,26.8,29.86,North,359,0.0,0.0,81,0.00,,,-99.99,Weather View 32 v60,2013-01-09 17:50:00,
2013-01-09 12:55:00,32.1,26.9,29.85,North,359,0.0,0.0,81,0.00,,,-99.99,Weather View 32 v60,2013-01-09 17:55:00,
2013-01-09 13:00:00,32.3,27.1,29.84,North,359,0.0,0.0,81,0.00,,,-99.99,Weather View 32 v60,2013-01-09 18:00:00,
2013-01-09 13:05:00,32.6,27.4,29.84,North,359,0.0,0.0,81,0.00,,,-99.99,Weather View 32 v60,2013-01-09 18:05:00,
2013-01-09 13:15:00,33.2,28.0,29.82,North,359,0.0,0.0,81,0.00,,,-99.99,Weather View 32 v60,2013-01-09 18:15:00,
2013-01-09 13:20:00,33.3,27.8,29.81,North,359,0.0,0.0,80,0.00,,,-99.99,Weather View 32 v60,2013-01-09 18:20:00,
2013-01-09 13:25:00,33.3,27.8,29.80,North,359,0.0,0.0,80,0.00,,,-99.99,Weather View 32 v60,2013-01-09 18:25:00,
2013-01-09 13:30:00,33.4,27.9,29.80,North,359,0.0,0.0,80,0.00,,,-99.99,Weather View 32 v60,2013-01-09 18:30:00,
2013-01-09 13:35:00,33.4,28.2,29.79,North,359,0.0,0.0,81,0.00,,,-99.99,Weather View 32 v60,2013-01-09 18:35:00,
2013-01-09 13:40:00,33.4,27.9,29.79,North,359,0.0,0.0,80,0.00,,,-99.99,Weather View 32 v60,2013-01-09 18:40:00,
2013-01-09 13:45:00,33.3,27.8,29.80,North,359,0.0,0.0,80,0.00,,,-99.99,Weather View 32 v60,2013-01-09 18:45:00,
2013-01-09 13:50:00,33.0,27.5,29.79,North,359,0.0,0.0,80,0.00,,,-99.99,Weather View 32 v60,2013-01-09 18:50:00,
2013-01-09 13:55:00,33.0,27.8,29.80,North,359,0.0,0.0,81,0.00,,,-99.99,Weather View 32 v60,2013-01-09 18:55:00,
2013-01-09 14:00:00,33.1,27.9,29.79,North,359,0.0,0.0,81,0.00,,,-99.99,Weather View 32 v60,2013-01-09 19:00:00,
2013-01-09 14:05:00,33.2,28.0,29.80,North,359,0.0,0.0,81,0.00,,,-99.99,Weather View 32 v60,2013-01-09 19:05:00,
2013-01-09 14:10:00,32.8,27.6,29.81,NNW,344,0.0,4.0,81,0.00,,,-99.99,Weather View 32 v60,2013-01-09 19:10:00,
2013-01-09 14:15:00,32.4,27.2,29.81,NNW,344,0.0,4.0,81,0.00,,,-99.99,Weather View 32 v60,2013-01-09 19:15:00,
2013-01-09 14:20:00,32.1,26.9,29.81,NNW,344,1.0,4.0,81,0.00,,,-99.99,Weather View 32 v60,2013-01-09 19:20:00,
2013-01-09 14:25:00,32.0,26.8,29.82,NNW,344,0.0,4.0,81,0.00,,,-99.99,Weather View 32 v60,2013-01-09 19:25:00,
2013-01-09 14:30:00,31.9,26.7,29.81,NNW,344,0.0,4.0,81,0.00,,,-99.99,Weather View 32 v60,2013-01-09 19:30:00,
2013-01-09 14:40:00,32.0,27.1,29.80,NNW,344,0.0,4.0,82,0.00,,,-99.99,Weather View 32 v60,2013-01-09 19:40:00,
2013-01-09 14:45:00,32.2,27.3,29.80,NNW,344,0.0,4.0,82,0.00,,,-99.99,Weather View 32 v60,2013-01-09 19:45:00,
2013-01-09 14:50:00,32.3,27.7,29.79,NNW,344,0.0,4.0,83,0.00,,,-99.99,Weather View 32 v60,2013-01-09 19:50:00,
2013-01-09 14:55:00,32.3,27.4,29.79,NNW,344,0.0,4.0,82,0.00,,,-99.99,Weather View 32 v60,2013-01-09 19:55:00,
2013-01-09 15:00:00,32.3,27.7,29.78,NNW,344,0.0,4.0,83,0.00,,,-99.99,Weather View 32 v60,2013-01-09 20:00:00,
2013-01-09 15:10:00,32.2,27.3,29.78,NNW,344,0.0,3.0,82,0.00,,,-99.99,Weather View 32 v60,2013-01-09 20:10:00,
2013-01-09 15:15:00,32.1,27.5,29.77,NNW,344,0.0,3.0,83,0.00,,,-99.99,Weather View 32 v60,2013-01-09 20:15:00,
2013-01-09 15:20:00,32.1,27.5,29.76,NNW,344,0.0,3.0,83,0.00,,,-99.99,Weather View 32 v60,2013-01-09 20:20:00,
2013-01-09 15:25:00,32.0,27.7,29.77,NNW,344,0.0,2.0,84,0.00,,,-99.99,Weather View 32 v60,2013-01-09 20:25:00,
2013-01-09 15:30:00,31.9,27.6,29.76,NNW,343,0.0,2.0,84,0.00,,,-99.99,Weather View 32 v60,2013-01-09 20:30:00,
2013-01-09 15:35:00,31.8,27.5,29.74,NNW,343,0.0,2.0,84,0.00,,,-99.99,Weather View 32 v60,2013-01-09 20:35:00,
2013-01-09 15:40:00,31.7,27.7,29.73,NNW,343,0.0,2.0,85,0.00,,,-99.99,Weather View 32 v60,2013-01-09 20:40:00,
2013-01-09 15:45:00,31.8,27.8,29.73,NNW,343,0.0,2.0,85,0.00,,,-99.99,Weather View 32 v60,2013-01-09 20:45:00,
2013-01-09 15:50:00,31.9,28.2,29.73,NNW,343,0.0,2.0,86,0.00,,,-99.99,Weather View 32 v60,2013-01-09 20:50:00,
2013-01-09 15:55:00,32.0,28.3,29.72,NNW,343,0.0,0.0,86,0.00,,,-99.99,Weather View 32 v60,2013-01-09 20:55:00,
2013-01-09 16:05:00,32.1,28.1,29.72,NNW,343,0.0,0.0,85,0.00,,,-99.99,Weather View 32 v60,2013-01-09 21:05:00,
2013-01-09 16:10:00,32.2,28.5,29.73,NNW,343,0.0,0.0,86,0.00,,,-99.99,Weather View 32 v60,2013-01-09 21:10:00,
2013-01-09 16:15:00,32.4,28.7,29.72,NNW,343,0.0,0.0,86,0.00,,,-99.99,Weather View 32 v60,2013-01-09 21:15:00,
2013-01-09 16:20:00,32.4,28.7,29.72,NNW,343,0.0,0.0,86,0.00,,,-99.99,Weather View 32 v60,2013-01-09 21:20:00,
2013-01-09 16:25:00,32.4,29.0,29.72,NNW,343,0.0,0.0,87,0.00,,,-99.99,Weather View 32 v60,2013-01-09 21:25:00,
2013-01-09 16:30:00,32.6,29.2,29.72,NNW,343,0.0,0.0,87,0.00,,,-99.99,Weather View 32 v60,2013-01-09 21:30:00,
2013-01-09 16:40:00,32.4,29.2,29.70,South,174,0.0,4.0,88,0.00,,,-99.99,Weather View 32 v60,2013-01-09 21:40:00,
2013-01-09 16:45:00,32.3,29.4,29.68,South,173,0.0,4.0,89,0.00,,,-99.99,Weather View 32 v60,2013-01-09 21:45:00,
2013-01-09 16:50:00,32.2,29.6,29.67,SE,137,0.0,4.0,90,0.00,,,-99.99,Weather View 32 v60,2013-01-09 21:50:00,
2013-01-09 16:55:00,32.3,29.7,29.65,SE,136,1.0,6.0,90,0.00,,,-99.99,Weather View 32 v60,2013-01-09 21:55:00,
2013-01-09 17:00:00,32.4,29.8,29.65,SSE,157,2.0,6.0,90,0.00,,,-99.99,Weather View 32 v60,2013-01-09 22:00:00,
2013-01-09 17:05:00,32.5,29.9,29.64,SE,146,0.0,6.0,90,0.00,,,-99.99,Weather View 32 v60,2013-01-09 22:05:00,
2013-01-09 17:10:00,32.5,29.9,29.65,SSE,153,0.0,6.0,90,0.00,,,-99.99,Weather View 32 v60,2013-01-09 22:10:00,
2013-01-09 17:15:00,32.5,30.2,29.65,SSW,204,2.0,6.0,91,0.00,,,-99.99,Weather View 32 v60,2013-01-09 22:15:00,
2013-01-09 17:20:00,32.5,30.2,29.65,SSW,196,0.0,6.0,91,0.00,,,-99.99,Weather View 32 v60,2013-01-09 22:20:00,
2013-01-09 17:25:00,32.5,30.4,29.64,SSW,196,1.0,6.0,92,0.00,,,-99.99,Weather View 32 v60,2013-01-09 22:25:00,
2013-01-09 17:30:00,32.5,30.4,29.64,SSW,197,0.0,6.0,92,0.00,,,-99.99,Weather View 32 v60,2013-01-09 22:30:00,
2013-01-09 17:35:00,32.5,30.4,29.63,SSW,197,0.0,6.0,92,0.00,,,-99.99,Weather View 32 v60,2013-01-09 22:35:00,
2013-01-09 17:40:00,32.5,30.7,29.63,SSW,197,0.0,6.0,93,0.00,,,-99.99,Weather View 32 v60,2013-01-09 22:40:00,
2013-01-09 17:45:00,32.5,30.7,29.63,SSW,197,0.0,6.0,93,0.00,,,-99.99,Weather View 32 v60,2013-01-09 22:45:00,
2013-01-09 17:50:00,32.6,30.5,29.63,SSW,197,0.0,6.0,92,0.00,,,-99.99,Weather View 32 v60,2013-01-09 22:50:00,
2013-01-09 17:55:00,32.4,30.3,29.63,SSW,197,0.0,6.0,92,0.00,,,-99.99,Weather View 32 v60,2013-01-09 22:55:00,
2013-01-09 18:00:00,32.1,30.0,29.63,SSW,197,0.0,6.0,92,0.00,,,-99.99,Weather View 32 v60,2013-01-09 23:00:00,
2013-01-09 18:05:00,31.9,29.8,29.62,SSW,197,0.0,5.0,92,0.00,,,-99.99,Weather View 32 v60,2013-01-09 23:05:00,
2013-01-09 18:10:00,32.0,30.5,29.61,SSW,197,0.0,5.0,94,0.00,,,-99.99,Weather View 32 v60,2013-01-09 23:10:00,
2013-01-09 18:15:00,32.2,30.7,29.61,SSW,197,0.0,5.0,94,0.00,,,-99.99,Weather View 32 v60,2013-01-09 23:15:00,
2013-01-09 18:20:00,32.5,31.0,29.61,SSW,197,0.0,3.0,94,0.00,,,-99.99,Weather View 32 v60,2013-01-09 23:20:00,
2013-01-09 18:25:00,32.6,31.1,29.61,SSW,197,0.0,3.0,94,0.00,,,-99.99,Weather View 32 v60,2013-01-09 23:25:00,
2013-01-09 18:30:00,32.5,30.7,29.61,SSW,197,0.0,2.0,93,0.00,,,-99.99,Weather View 32 v60,2013-01-09 23:30:00,
2013-01-09 18:40:00,31.9,30.1,29.60,SSW,197,0.0,0.0,93,0.00,,,-99.99,Weather View 32 v60,2013-01-09 23:40:00,
2013-01-09 18:45:00,31.7,30.2,29.60,SSW,197,0.0,0.0,94,0.00,,,-99.99,Weather View 32 v60,2013-01-09 23:45:00,
2013-01-09 18:50:00,31.8,30.3,29.61,SSW,197,0.0,3.0,94,0.00,,,-99.99,Weather View 32 v60,2013-01-09 23:50:00,
2013-01-09 18:55:00,31.8,30.3,29.60,SSW,197,0.0,3.0,94,0.00,,,-99.99,Weather View 32 v60,2013-01-09 23:55:00,
2013-01-09 19:00:00,31.8,30.3,29.60,SSW,197,0.0,3.0,94,0.00,,,-99.99,Weather View 32 v60,2013-01-10 00:00:00,
2013-01-09 19:05:00,31.8,30.3,29.59,SSW,197,0.0,3.0,94,0.00,,,-99.99,Weather View 32 v60,2013-01-10 00:05:00,
2013-01-09 19:10:00,31.9,30.4,29.57,SSW,197,0.0,3.0,94,0.00,,,-99.99,Weather View 32 v60,2013-01-10 00:10:00,
2013-01-09 19:15:00,31.8,30.3,29.57,SSW,197,0.0,3.0,94,0.00,,,-99.99,Weather View 32 v60,2013-01-10 00:15:00,
2013-01-09 19:20:00,31.8,30.3,29.58,SSW,197,0.0,3.0,94,0.00,,,-99.99,Weather View 32 v60,2013-01-10 00:20:00,
2013-01-09 19:25:00,31.6,30.3,29.58,SSW,197,0.0,3.0,95,0.00,,,-99.99,Weather View 32 v60,2013-01-10 00:25:00,
2013-01-09 19:30:00,31.4,30.1,29.57,SSW,197,0.0,3.0,95,0.00,,,-99.99,Weather View 32 v60,2013-01-10 00:30:00,
2013-01-09 19:35:00,31.3,30.0,29.57,SSW,197,0.0,3.0,95,0.00,,,-99.99,Weather View 32 v60,2013-01-10 00:35:00,
2013-01-09 19:40:00,31.3,30.0,29.57,SSW,197,0.0,3.0,95,0.00,,,-99.99,Weather View 32 v60,2013-01-10 00:40:00,
2013-01-09 19:45:00,31.6,30.3,29.57,SSW,197,0.0,3.0,95,0.00,,,-99.99,Weather View 32 v60,2013-01-10 00:45:00,
2013-01-09 19:50:00,31.9,30.4,29.57,SSW,201,1.0,5.0,94,0.00,,,-99.99,Weather View 32 v60,2013-01-10 00:50:00,
2013-01-09 19:55:00,31.9,30.1,29.56,SSW,201,0.0,6.0,93,0.00,,,-99.99,Weather View 32 v60,2013-01-10 00:55:00,
2013-01-09 20:00:00,31.9,30.1,29.56,SW,219,0.0,6.0,93,0.00,,,-99.99,Weather View 32 v60,2013-01-10 01:00:00,
2013-01-09 20:05:00,32.1,30.0,29.56,SW,232,1.0,6.0,92,0.00,,,-99.99,Weather View 32 v60,2013-01-10 01:05:00,
2013-01-09 20:10:00,32.1,30.0,29.56,SW,223,0.0,6.0,92,0.00,,,-99.99,Weather View 32 v60,2013-01-10 01:10:00,
2013-01-09 20:15:00,32.0,29.9,29.56,SW,219,0.0,6.0,92,0.00,,,-99.99,Weather View 32 v60,2013-01-10 01:15:00,
2013-01-09 20:20:00,31.9,29.8,29.56,SW,220,0.0,6.0,92,0.00,,,-99.99,Weather View 32 v60,2013-01-10 01:20:00,
2013-01-09 20:30:00,31.5,29.2,29.56,SW,220,0.0,6.0,91,0.00,,,-99.99,Weather View 32 v60,2013-01-10 01:30:00,
2013-01-09 20:40:00,31.0,28.9,29.55,SW,219,0.0,6.0,92,0.00,,,-99.99,Weather View 32 v60,2013-01-10 01:40:00,
2013-01-09 20:45:00,31.1,28.8,29.55,SW,220,3.0,6.0,91,0.00,,,-99.99,Weather View 32 v60,2013-01-10 01:45:00,
2013-01-09 20:50:00,31.4,28.8,29.54,SW,219,0.0,6.0,90,0.00,,,-99.99,Weather View 32 v60,2013-01-10 01:50:00,
2013-01-09 20:55:00,31.3,29.0,29.54,SW,224,3.0,6.0,91,0.00,,,-99.99,Weather View 32 v60,2013-01-10 01:55:00,
2013-01-09 21:00:00,31.4,28.8,29.54,SW,224,2.0,6.0,90,0.00,,,-99.99,Weather View 32 v60,2013-01-10 02:00:00,
2013-01-09 21:05:00,31.4,28.8,29.54,WSW,244,0.0,6.0,90,0.00,,,-99.99,Weather View 32 v60,2013-01-10 02:05:00,
2013-01-09 21:10:00,31.1,28.5,29.54,WSW,244,0.0,6.0,90,0.00,,,-99.99,Weather View 32 v60,2013-01-10 02:10:00,
2013-01-09 21:15:00,30.8,28.5,29.53,WSW,244,0.0,6.0,91,0.00,,,-99.99,Weather View 32 v60,2013-01-10 02:15:00,
2013-01-09 21:25:00,30.2,28.2,29.53,WSW,244,0.0,6.0,92,0.00,,,-99.99,Weather View 32 v60,2013-01-10 02:25:00,
2013-01-09 21:30:00,30.1,28.1,29.53,WNW,295,2.0,6.0,92,0.00,,,-99.99,Weather View 32 v60,2013-01-10 02:30:00,
2013-01-09 21:35:00,30.0,28.0,29.53,NW,310,3.0,6.0,92,0.00,,,-99.99,Weather View 32 v60,2013-01-10 02:35:00,
2013-01-09 21:40:00,29.7,27.4,29.54,NNW,329,0.0,6.0,91,0.00,,,-99.99,Weather View 32 v60,2013-01-10 02:40:00,
2013-01-09 21:45:00,29.1,27.1,29.54,NNW,329,0.0,6.0,92,0.00,,,-99.99,Weather View 32 v60,2013-01-10 02:45:00,
2013-01-09 21:55:00,28.1,26.6,29.55,NNW,329,1.0,6.0,94,0.00,,,-99.99,Weather View 32 v60,2013-01-10 02:55:00,
2013-01-09 22:00:00,28.4,27.2,29.55,NNW,329,0.0,5.0,95,0.00,,,-99.99,Weather View 32 v60,2013-01-10 03:00:00,
2013-01-09 22:05:00,28.9,27.4,29.55,NW,325,0.0,7.0,94,0.00,,,-99.99,Weather View 32 v60,2013-01-10 03:05:00,
2013-01-09 22:10:00,29.5,27.7,29.55,NNW,336,2.0,7.0,93,0.00,,,-99.99,Weather View 32 v60,2013-01-10 03:10:00,
2013-01-09 22:15:00,29.6,27.6,29.55,NNW,334,0.0,7.0,92,0.00,,,-99.99,Weather View 32 v60,2013-01-10 03:15:00,
2013-01-09 22:20:00,29.7,27.7,29.54,NNW,345,0.0,7.0,92,0.00,,,-99.99,Weather View 32 v60,2013-01-10 03:20:00,
2013-01-09 22:25:00,29.9,27.6,29.54,NW,321,3.0,7.0,91,0.00,,,-99.99,Weather View 32 v60,2013-01-10 03:25:00,
2013-01-09 22:30:00,30.1,27.5,29.54,NW,312,1.0,7.0,90,0.00,,,-99.99,Weather View 32 v60,2013-01-10 03:30:00,
2013-01-09 22:40:00,30.5,27.9,29.54,NW,310,7.0,8.0,90,0.00,,,-99.99,Weather View 32 v60,2013-01-10 03:40:00,
2013-01-09 22:45:00,31.0,28.1,29.55,NNW,346,4.0,8.0,89,0.00,,,-99.99,Weather View 32 v60,2013-01-10 03:45:00,
2013-01-09 22:50:00,31.1,28.2,29.55,NW,326,2.0,8.0,89,0.00,,,-99.99,Weather View 32 v60,2013-01-10 03:50:00,
2013-01-09 22:55:00,31.2,28.3,29.55,NW,318,3.0,8.0,89,0.00,,,-99.99,Weather View 32 v60,2013-01-10 03:55:00,
2013-01-09 23:00:00,31.4,28.3,29.55,NNW,338,5.0,9.0,88,0.00,,,-99.99,Weather View 32 v60,2013-01-10 04:00:00,
2013-01-09 23:21:00,31.4,28.3,29.55,NNW,338,5.0,9.0,88,0.00,,,-99.99,Weather View 32 v60,2013-01-10 04:21:00,
2013-01-09 23:30:00,32.0,28.3,29.54,North,350,2.0,9.0,86,0.00,,,-99.99,Weather View 32 v60,2013-01-10 04:30:00,
2013-01-09 23:35:00,31.9,28.5,29.55,NW,318,1.0,9.0,87,0.00,,,-99.99,Weather View 32 v60,2013-01-10 04:35:00,
2013-01-09 23:40:00,31.9,28.2,29.55,NW,318,0.0,9.0,86,0.00,,,-99.99,Weather View 32 v60,2013-01-10 04:40:00,
2013-01-09 23:45:00,31.6,28.2,29.55,NW,323,0.0,9.0,87,0.00,,,-99.99,Weather View 32 v60,2013-01-10 04:45:00,
2013-01-09 23:50:00,31.5,28.4,29.55,NW,323,0.0,9.0,88,0.00,,,-99.99,Weather View 32 v60,2013-01-10 04:50:00,
2013-01-09 23:55:00,31.6,28.5,29.55,NW,323,0.0,9.0,88,0.00,,,-99.99,Weather View 32 v60,2013-01-10 04:55:00,